createdAt,value
2022-08-17T00:00:43.513Z,27.29
2022-08-17T00:03:17.320Z,27.28
2022-08-17T00:05:52.289Z,27.48
2022-08-17T00:08:23.049Z,27.50
2022-08-17T00:10:55.735Z,27.43
2022-08-17T00:13:28.702Z,27.16
2022-08-17T00:16:03.092Z,26.91
2022-08-17T00:19:02.015Z,27.02
2022-08-17T00:21:25.507Z,27.26
2022-08-17T00:23:53.798Z,27.14
2022-08-17T00:26:43.656Z,27.29
2022-08-17T00:29:23.596Z,27.43
2022-08-17T00:31:55.873Z,27.52
2022-08-17T00:34:27.926Z,27.39
2022-08-17T00:36:55.859Z,27.30
2022-08-17T00:39:26.929Z,27.17
2022-08-17T00:41:59.098Z,27.18
2022-08-17T00:44:30.335Z,27.14
2022-08-17T00:47:04.629Z,26.92
2022-08-17T00:49:35.604Z,27.12
2022-08-17T00:52:11.614Z,27.23
2022-08-17T00:54:42.722Z,27.16
2022-08-17T00:57:12.025Z,27.33
2022-08-17T00:59:40.714Z,27.28
2022-08-17T01:02:09.596Z,27.27
2022-08-17T01:04:42.347Z,26.99
2022-08-17T01:07:15.337Z,26.74
2022-08-17T01:09:49.061Z,26.89
2022-08-17T01:12:22.155Z,27.10
2022-08-17T01:15:05.073Z,27.10
2022-08-17T01:17:38.100Z,27.06
2022-08-17T01:20:07.158Z,27.15
2022-08-17T01:22:41.627Z,27.16
2022-08-17T01:25:12.701Z,27.22
2022-08-17T01:27:48.933Z,27.35
2022-08-17T01:30:57.314Z,27.00
2022-08-17T01:33:16.642Z,26.42
2022-08-17T01:35:47.388Z,26.72
2022-08-17T01:38:18.191Z,26.95
2022-08-17T01:40:57.474Z,27.10
2022-08-17T01:43:45.626Z,27.16
2022-08-17T01:46:23.788Z,27.25
2022-08-17T01:48:54.151Z,27.13
2022-08-17T01:51:21.736Z,26.87
2022-08-17T01:53:53.386Z,26.79
2022-08-17T01:56:26.380Z,26.61
2022-08-17T01:58:56.793Z,26.68
2022-08-17T02:01:31.262Z,26.60
2022-08-17T02:04:03.105Z,26.70
2022-08-17T02:06:47.071Z,26.88
2022-08-17T02:09:25.172Z,26.64
2022-08-17T02:11:57.214Z,26.65
2022-08-17T02:14:30.101Z,26.76
2022-08-17T02:17:11.632Z,26.31
2022-08-17T02:19:42.314Z,26.51
2022-08-17T02:22:10.065Z,26.72
2022-08-17T02:25:01.150Z,26.83
2022-08-17T02:27:38.182Z,26.92
2022-08-17T02:30:59.349Z,26.92
2022-08-17T02:33:00.200Z,26.86
2022-08-17T02:35:35.188Z,26.61
2022-08-17T02:38:06.237Z,26.68
2022-08-17T02:40:35.615Z,26.51
2022-08-17T02:43:04.890Z,26.66
2022-08-17T02:45:38.304Z,26.35
2022-08-17T02:48:11.509Z,26.28
2022-08-17T02:50:47.018Z,26.32
2022-08-17T02:53:16.769Z,26.47
2022-08-17T02:55:47.308Z,26.37
2022-08-17T02:58:34.293Z,26.33
2022-08-17T03:01:10.392Z,26.44
2022-08-17T03:03:41.329Z,26.62
2022-08-17T03:06:11.505Z,26.48
2022-08-17T03:08:40.808Z,26.52
2022-08-17T03:11:13.790Z,26.26
2022-08-17T03:13:41.486Z,26.37
2022-08-17T03:16:12.073Z,26.47
2022-08-17T03:18:40.399Z,26.54
2022-08-17T03:21:11.211Z,26.39
2022-08-17T03:23:47.163Z,26.50
2022-08-17T03:26:24.344Z,26.37
2022-08-17T03:29:02.762Z,26.28
2022-08-17T03:31:33.830Z,26.22
2022-08-17T03:34:04.788Z,26.38
2022-08-17T03:36:37.820Z,26.20
2022-08-17T03:39:08.541Z,26.17
2022-08-17T03:41:38.744Z,26.23
2022-08-17T03:44:07.502Z,26.33
2022-08-17T03:46:53.393Z,26.34
2022-08-17T03:49:42.080Z,26.13
2022-08-17T03:52:30.428Z,26.16
2022-08-17T03:55:19.453Z,26.24
2022-08-17T03:58:12.057Z,26.42
2022-08-17T04:00:40.603Z,26.47
2022-08-17T04:03:09.087Z,26.42
2022-08-17T04:05:38.052Z,26.13
2022-08-17T04:08:08.097Z,25.90
2022-08-17T04:10:38.471Z,25.10
2022-08-17T04:13:16.076Z,24.99
2022-08-17T04:16:00.129Z,25.18
2022-08-17T04:18:30.635Z,25.21
2022-08-17T04:21:01.289Z,25.41
2022-08-17T04:23:36.769Z,25.71
2022-08-17T04:26:04.326Z,25.85
2022-08-17T04:28:37.217Z,26.00
2022-08-17T04:31:05.198Z,26.06
2022-08-17T04:33:40.299Z,26.10
2022-08-17T04:36:11.461Z,26.08
2022-08-17T04:38:42.115Z,26.08
2022-08-17T04:41:31.531Z,26.07
2022-08-17T04:43:59.251Z,25.97
2022-08-17T04:46:32.899Z,25.83
2022-08-17T04:49:04.532Z,25.72
2022-08-17T04:51:56.263Z,25.72
2022-08-17T04:54:27.760Z,25.94
2022-08-17T04:56:55.316Z,26.08
2022-08-17T04:59:27.224Z,26.22
2022-08-17T05:01:54.980Z,26.27
2022-08-17T05:04:34.490Z,26.04
2022-08-17T05:07:08.601Z,25.81
2022-08-17T05:09:36.304Z,25.97
2022-08-17T05:12:04.084Z,25.88
2022-08-17T05:17:45.114Z,25.82
2022-08-17T05:20:17.178Z,25.90
2022-08-17T05:22:52.700Z,26.00
2022-08-17T05:25:25.565Z,26.09
2022-08-17T05:27:54.454Z,25.16
2022-08-17T05:31:12.102Z,24.93
2022-08-17T05:33:46.332Z,25.38
2022-08-17T05:36:44.474Z,25.73
2022-08-17T05:39:40.343Z,25.89
2022-08-17T05:42:10.065Z,25.83
2022-08-17T05:45:01.948Z,25.87
2022-08-17T05:47:32.384Z,26.03
2022-08-17T05:50:01.238Z,26.18
2022-08-17T05:52:35.500Z,26.15
2022-08-17T05:55:10.216Z,25.75
2022-08-17T05:57:53.556Z,25.94
2022-08-17T06:00:30.178Z,25.84
2022-08-17T06:03:04.579Z,25.86
2022-08-17T06:05:50.586Z,26.06
2022-08-17T06:08:22.085Z,26.34
2022-08-17T06:10:53.420Z,26.05
2022-08-17T06:13:24.334Z,26.08
2022-08-17T06:18:50.237Z,25.98
2022-08-17T06:21:20.680Z,26.17
2022-08-17T06:25:10.115Z,26.26
2022-08-17T06:27:41.465Z,26.22
2022-08-17T06:34:34.275Z,26.34
2022-08-17T06:37:21.549Z,26.57
2022-08-17T06:40:14.399Z,26.63
2022-08-17T06:43:05.533Z,26.17
2022-08-17T06:45:42.771Z,26.13
2022-08-17T06:48:13.286Z,26.36
2022-08-17T06:50:47.425Z,26.48
2022-08-17T06:53:28.569Z,26.27
2022-08-17T06:56:05.400Z,26.21
2022-08-17T06:58:36.197Z,26.40
2022-08-17T07:01:12.999Z,26.65
2022-08-17T07:03:54.416Z,26.58
2022-08-17T07:06:28.409Z,26.79
2022-08-17T07:08:59.159Z,26.63
2022-08-17T07:11:52.172Z,26.83
2022-08-17T07:14:51.759Z,26.78
2022-08-17T08:17:50.596Z,28.31
2022-08-17T08:21:53.223Z,28.19
2022-08-17T08:45:56.660Z,28.54
2022-08-17T08:53:10.793Z,28.84
2022-08-17T10:21:21.791Z,30.93
2022-08-17T10:24:10.156Z,30.43
2022-08-17T10:26:53.463Z,30.37
2022-08-17T10:29:28.999Z,30.73
2022-08-17T10:32:03.659Z,30.96
2022-08-17T10:34:41.443Z,31.10
2022-08-17T10:49:47.893Z,31.35
2022-08-17T11:14:06.503Z,32.30
2022-08-17T11:57:32.212Z,31.60
2022-08-17T12:00:00.168Z,31.94
2022-08-17T12:02:34.955Z,31.70
2022-08-17T12:05:14.343Z,30.89
2022-08-17T12:07:56.550Z,31.36
2022-08-17T12:10:35.289Z,31.83
2022-08-17T12:13:08.666Z,31.83
2022-08-17T12:16:00.872Z,31.87
2022-08-17T12:18:59.908Z,31.84
2022-08-17T12:21:41.462Z,31.58
2022-08-17T12:24:25.231Z,31.29
2022-08-17T12:27:00.245Z,32.24
2022-08-17T12:29:35.587Z,32.36
2022-08-17T12:32:20.661Z,32.95
2022-08-17T12:34:48.856Z,33.30
2022-08-17T12:37:22.720Z,33.81
2022-08-17T12:39:55.032Z,33.19
2022-08-17T12:42:24.396Z,32.42
2022-08-17T12:44:51.805Z,32.98
2022-08-17T12:47:23.219Z,32.92
2022-08-17T12:49:51.830Z,32.20
2022-08-17T12:52:24.865Z,31.91
2022-08-17T12:54:55.486Z,31.61
2022-08-17T12:57:42.173Z,32.27
2022-08-17T13:00:18.040Z,33.00
2022-08-17T13:02:48.326Z,33.15
2022-08-17T13:05:24.923Z,33.51
2022-08-17T13:07:53.411Z,34.02
2022-08-17T13:10:22.405Z,33.97
2022-08-17T13:12:55.162Z,33.41
2022-08-17T13:18:37.219Z,34.20
2022-08-17T13:21:12.560Z,33.27
2022-08-17T13:24:05.642Z,33.26
2022-08-17T13:26:35.841Z,33.94
2022-08-17T13:29:09.763Z,34.34
2022-08-17T13:31:52.367Z,33.36
2022-08-17T13:34:27.578Z,32.52
2022-08-17T13:37:14.129Z,32.85
2022-08-17T13:39:41.592Z,34.93
2022-08-17T13:42:29.943Z,34.92
2022-08-17T13:45:00.517Z,36.75
2022-08-17T13:47:31.243Z,35.61
2022-08-17T13:49:58.529Z,35.12
2022-08-17T13:52:34.781Z,35.22
2022-08-17T13:55:04.156Z,34.35
2022-08-17T13:57:32.127Z,33.80
2022-08-17T14:00:12.598Z,33.47
2022-08-17T14:02:45.469Z,33.39
2022-08-17T14:05:15.619Z,32.95
2022-08-17T14:08:11.386Z,32.63
2022-08-17T14:10:38.707Z,32.50
2022-08-17T14:13:06.410Z,32.20
2022-08-17T14:16:05.869Z,32.06
2022-08-17T14:18:56.444Z,31.95
2022-08-17T14:21:30.374Z,31.97
2022-08-17T14:24:00.679Z,31.92
2022-08-17T14:26:56.456Z,31.91
2022-08-17T14:29:27.982Z,31.94
2022-08-17T14:31:56.101Z,31.81
2022-08-17T14:34:29.328Z,31.58
2022-08-17T14:37:01.994Z,31.15
2022-08-17T14:39:35.196Z,31.22
2022-08-17T14:42:11.531Z,31.14
2022-08-17T14:44:42.261Z,31.07
2022-08-17T14:47:15.460Z,30.94
2022-08-17T14:49:48.316Z,30.90
2022-08-17T14:52:31.483Z,31.02
2022-08-17T14:55:06.709Z,31.14
2022-08-17T14:57:36.451Z,31.23
2022-08-17T15:00:04.205Z,31.32
2022-08-17T15:02:41.903Z,31.41
2022-08-17T15:05:14.669Z,31.49
2022-08-17T15:07:44.597Z,31.54
2022-08-17T15:10:17.707Z,31.65
2022-08-17T15:12:51.192Z,31.75
2022-08-17T15:15:18.610Z,31.58
2022-08-17T15:17:47.719Z,31.60
2022-08-17T15:20:18.168Z,31.47
2022-08-17T15:22:56.334Z,31.23
2022-08-17T15:25:31.967Z,31.27
2022-08-17T15:28:08.096Z,31.34
2022-08-17T15:30:44.957Z,31.35
2022-08-17T15:33:16.606Z,31.39
2022-08-17T15:35:49.115Z,31.35
2022-08-17T15:38:19.312Z,31.32
2022-08-17T15:40:52.965Z,31.22
2022-08-17T15:43:28.093Z,31.15
2022-08-17T15:46:08.944Z,31.08
2022-08-17T15:48:46.475Z,31.09
2022-08-17T15:51:24.076Z,31.07
2022-08-17T15:53:57.015Z,31.09
2022-08-17T15:56:34.157Z,31.11
2022-08-17T15:59:03.902Z,31.02
2022-08-17T16:03:01.811Z,31.07
2022-08-17T16:04:33.254Z,30.99
2022-08-17T16:07:00.984Z,30.73
2022-08-17T16:09:31.239Z,30.68
2022-08-17T16:12:14.008Z,30.68
2022-08-17T16:14:43.782Z,30.70
2022-08-17T16:17:49.412Z,30.59
2022-08-17T16:20:20.038Z,30.65
2022-08-17T16:22:54.496Z,30.63
2022-08-17T16:25:52.288Z,30.65
2022-08-17T16:28:36.202Z,30.61
2022-08-17T16:31:05.832Z,30.71
2022-08-17T16:34:16.753Z,30.84
2022-08-17T16:36:55.975Z,30.85
2022-08-17T16:39:27.087Z,30.75
2022-08-17T16:41:55.999Z,30.74
2022-08-17T16:44:28.726Z,30.68
2022-08-17T16:46:57.422Z,30.61
2022-08-17T16:49:37.032Z,30.58
2022-08-17T16:52:15.278Z,30.59
2022-08-17T16:55:09.178Z,30.56
2022-08-17T16:57:49.918Z,30.48
2022-08-17T17:00:21.227Z,30.40
2022-08-17T17:02:57.695Z,30.29
2022-08-17T17:05:33.411Z,30.24
2022-08-17T17:08:09.094Z,30.23
2022-08-17T17:10:56.401Z,30.19
2022-08-17T17:13:53.372Z,30.10
2022-08-17T17:16:26.201Z,30.09
2022-08-17T17:19:01.994Z,29.95
2022-08-17T17:21:34.113Z,29.92
2022-08-17T17:24:09.816Z,29.77
2022-08-17T17:26:37.101Z,29.71
2022-08-17T17:29:12.695Z,29.70
2022-08-17T17:31:44.303Z,29.75
2022-08-17T17:34:19.740Z,29.69
2022-08-17T17:36:54.650Z,29.79
2022-08-17T17:39:41.547Z,29.71
2022-08-17T17:42:14.287Z,29.52
2022-08-17T17:44:45.188Z,29.58
2022-08-17T17:47:13.123Z,29.28
2022-08-17T17:50:06.240Z,29.22
2022-08-17T17:52:47.577Z,28.98
2022-08-17T17:55:22.591Z,28.90
2022-08-17T17:58:08.521Z,28.88
2022-08-17T18:00:54.311Z,28.85
2022-08-17T18:03:27.418Z,28.27
2022-08-17T18:06:01.366Z,27.31
2022-08-17T18:08:37.650Z,26.19
2022-08-17T18:11:05.124Z,25.40
2022-08-17T18:13:52.112Z,24.77
2022-08-17T18:16:36.678Z,24.13
2022-08-17T18:19:06.173Z,23.64
2022-08-17T18:21:38.953Z,23.60
2022-08-17T18:24:07.789Z,23.54
2022-08-17T18:26:36.460Z,23.72
2022-08-17T18:29:15.054Z,23.74
2022-08-17T18:31:42.364Z,23.81
2022-08-17T18:34:43.734Z,23.68
2022-08-17T18:37:09.024Z,23.79
2022-08-17T18:39:39.249Z,23.87
2022-08-17T18:42:09.306Z,24.51
2022-08-17T18:44:41.429Z,24.78
2022-08-17T18:47:08.822Z,24.61
2022-08-17T18:49:38.479Z,25.03
2022-08-17T18:52:16.224Z,25.43
2022-08-17T18:55:02.069Z,25.41
2022-08-17T18:57:35.539Z,25.79
2022-08-17T19:00:12.659Z,25.82
2022-08-17T19:02:52.338Z,25.61
2022-08-17T19:05:38.656Z,25.65
2022-08-17T19:08:24.624Z,25.99
2022-08-17T19:11:09.321Z,26.57
2022-08-17T19:13:52.505Z,26.18
2022-08-17T19:16:25.333Z,25.38
2022-08-17T19:18:57.929Z,25.55
2022-08-17T19:21:36.324Z,25.50
2022-08-17T19:24:05.897Z,25.94
2022-08-17T19:26:53.586Z,26.56
2022-08-17T19:29:29.240Z,26.33
2022-08-17T19:31:58.640Z,25.72
2022-08-17T19:34:30.326Z,25.90
2022-08-17T19:37:20.825Z,26.32
2022-08-17T19:40:00.707Z,26.87
2022-08-17T19:42:42.463Z,26.66
2022-08-17T19:45:30.024Z,26.67
2022-08-17T19:48:00.512Z,26.71
2022-08-17T19:50:29.968Z,26.34
2022-08-17T19:52:57.181Z,26.10
2022-08-17T19:55:34.969Z,25.81
2022-08-17T19:58:17.821Z,26.09
2022-08-17T20:00:47.793Z,26.46
2022-08-17T20:03:17.041Z,26.83
2022-08-17T20:06:11.389Z,26.75
2022-08-17T20:08:43.773Z,26.44
2022-08-17T20:11:18.750Z,26.92
2022-08-17T20:13:50.729Z,27.12
2022-08-17T20:16:21.756Z,27.17
2022-08-17T20:18:50.358Z,26.90
2022-08-17T20:21:26.294Z,26.70
2022-08-17T20:23:53.695Z,26.78
2022-08-17T20:26:20.949Z,26.77
2022-08-17T20:29:07.981Z,26.59
2022-08-17T20:31:40.149Z,26.19
2022-08-17T20:34:45.682Z,26.18
2022-08-17T20:37:12.847Z,25.88
2022-08-17T20:39:43.247Z,26.03
2022-08-17T20:42:19.713Z,26.29
2022-08-17T20:44:49.140Z,25.66
2022-08-17T20:47:17.545Z,25.39
2022-08-17T20:49:47.885Z,25.69
2022-08-17T20:52:19.063Z,26.22
2022-08-17T20:54:54.222Z,26.56
2022-08-17T20:57:31.356Z,26.75
2022-08-17T21:00:15.076Z,26.81
2022-08-17T21:02:52.077Z,26.67
2022-08-17T21:05:32.512Z,26.79
2022-08-17T21:08:13.141Z,26.96
2022-08-17T21:10:40.528Z,27.01
2022-08-17T21:13:15.555Z,26.69
2022-08-17T21:15:59.173Z,26.04
2022-08-17T21:18:38.827Z,26.44
2022-08-17T21:21:18.961Z,26.72
2022-08-17T21:23:49.879Z,26.75
2022-08-17T21:26:20.189Z,26.36
2022-08-17T21:29:00.506Z,26.29
2022-08-17T21:31:36.003Z,26.59
2022-08-17T21:34:16.255Z,26.74
2022-08-17T21:36:45.887Z,26.81
2022-08-17T21:39:28.314Z,26.27
2022-08-17T21:42:08.218Z,26.44
2022-08-17T21:44:42.531Z,26.66
2022-08-17T21:47:15.076Z,26.77
2022-08-17T21:49:47.713Z,26.86
2022-08-17T21:52:19.446Z,26.81
2022-08-17T21:54:53.678Z,26.43
2022-08-17T21:57:27.644Z,26.43
2022-08-17T21:59:58.385Z,26.60
2022-08-17T22:02:37.716Z,26.76
2022-08-17T22:05:08.758Z,26.60
2022-08-17T22:07:40.431Z,26.56
2022-08-17T22:10:34.707Z,26.71
2022-08-17T22:13:22.138Z,26.64
2022-08-17T22:18:59.038Z,26.88
2022-08-17T22:21:29.021Z,26.65
2022-08-17T22:24:05.970Z,26.81
2022-08-17T22:26:52.200Z,26.98
2022-08-17T22:29:43.661Z,27.05
2022-08-17T22:32:15.416Z,26.77
2022-08-17T22:34:44.996Z,26.49
2022-08-17T22:37:21.388Z,26.18
2022-08-17T22:40:00.739Z,26.31
2022-08-17T22:42:30.712Z,25.96
2022-08-17T22:45:00.569Z,26.23
2022-08-17T22:47:33.451Z,26.47
2022-08-17T22:50:03.527Z,26.49
2022-08-17T22:52:57.699Z,26.67
2022-08-17T22:55:45.404Z,26.63
2022-08-17T22:58:40.594Z,26.41
2022-08-17T23:01:29.863Z,26.46
2022-08-17T23:04:24.653Z,26.28
2022-08-17T23:06:55.672Z,26.54
2022-08-17T23:09:25.750Z,26.71
2022-08-17T23:11:59.197Z,26.66
2022-08-17T23:14:32.134Z,26.62
2022-08-17T23:17:02.092Z,26.57
2022-08-17T23:19:37.302Z,26.44
2022-08-17T23:22:08.022Z,26.65
2022-08-17T23:24:52.226Z,26.10
2022-08-17T23:27:30.939Z,26.09
2022-08-17T23:30:03.093Z,26.23
2022-08-17T23:32:37.905Z,26.21
2022-08-17T23:35:40.065Z,26.48
2022-08-17T23:38:11.693Z,26.47
2022-08-17T23:40:42.730Z,26.58
2022-08-17T23:43:24.411Z,26.52
2022-08-17T23:45:55.637Z,26.66
2022-08-17T23:48:28.674Z,26.77
2022-08-17T23:51:16.502Z,26.66
2022-08-17T23:53:48.535Z,26.64
2022-08-17T23:56:25.488Z,26.63
2022-08-17T23:58:55.441Z,26.56
